createdAt,value
2023-02-04T00:02:01.588Z,81
2023-02-04T00:05:26.851Z,81
2023-02-04T00:08:51.988Z,81
2023-02-04T00:12:17.208Z,81
2023-02-04T00:15:42.388Z,81
2023-02-04T00:19:07.555Z,81
2023-02-04T00:22:32.780Z,81
2023-02-04T00:25:57.948Z,81
2023-02-04T00:29:23.148Z,81
2023-02-04T00:32:48.311Z,81
2023-02-04T00:36:13.521Z,82
2023-02-04T00:39:38.690Z,81
2023-02-04T00:43:03.893Z,81
2023-02-04T00:46:29.127Z,81
2023-02-04T00:49:54.268Z,81
2023-02-04T00:53:19.468Z,82
2023-02-04T00:56:44.685Z,83
2023-02-04T01:00:09.855Z,83
2023-02-04T01:03:35.059Z,83
2023-02-04T01:07:00.219Z,83
2023-02-04T01:10:25.415Z,84
2023-02-04T01:13:50.588Z,83
2023-02-04T01:17:15.753Z,83
2023-02-04T01:20:40.979Z,84
2023-02-04T01:24:06.124Z,84
2023-02-04T01:27:31.372Z,84
2023-02-04T01:30:56.589Z,84
2023-02-04T01:34:21.745Z,85
2023-02-04T01:37:47.016Z,85
2023-02-04T01:41:12.180Z,85
2023-02-04T01:44:37.365Z,85
2023-02-04T01:48:02.598Z,86
2023-02-04T01:51:27.777Z,87
2023-02-04T01:54:52.970Z,87
2023-02-04T01:58:18.173Z,87
2023-02-04T02:01:43.381Z,88
2023-02-04T02:05:08.560Z,88
2023-02-04T02:08:33.734Z,88
2023-02-04T02:11:58.950Z,89
2023-02-04T02:15:24.146Z,89
2023-02-04T02:18:49.341Z,89
2023-02-04T02:22:14.525Z,89
2023-02-04T02:25:39.723Z,89
2023-02-04T02:29:04.921Z,89
2023-02-04T02:32:30.122Z,88
2023-02-04T02:35:55.317Z,87
2023-02-04T02:39:20.485Z,87
2023-02-04T02:42:45.665Z,88
2023-02-04T02:46:10.925Z,89
2023-02-04T02:49:36.074Z,90
2023-02-04T02:53:01.276Z,90
2023-02-04T02:56:26.501Z,90
2023-02-04T02:59:51.680Z,90
2023-02-04T03:03:16.887Z,90
2023-02-04T03:06:42.050Z,90
2023-02-04T03:10:07.254Z,90
2023-02-04T03:13:32.470Z,90
2023-02-04T03:16:57.644Z,91
2023-02-04T03:20:23.137Z,91
2023-02-04T03:23:48.295Z,91
2023-02-04T03:27:13.506Z,91
2023-02-04T03:30:38.739Z,91
2023-02-04T03:34:03.909Z,91
2023-02-04T03:37:29.118Z,91
2023-02-04T03:40:54.282Z,91
2023-02-04T03:44:19.483Z,91
2023-02-04T03:47:44.659Z,91
2023-02-04T03:51:09.844Z,91
2023-02-04T03:54:35.043Z,91
2023-02-04T03:58:00.204Z,90
2023-02-04T04:01:25.446Z,90
2023-02-04T04:04:50.677Z,90
2023-02-04T04:08:15.877Z,90
2023-02-04T04:11:41.077Z,89
2023-02-04T04:15:06.249Z,89
2023-02-04T04:18:31.467Z,89
2023-02-04T04:21:56.651Z,89
2023-02-04T04:25:21.824Z,88
2023-02-04T04:28:47.031Z,88
2023-02-04T04:32:12.187Z,89
2023-02-04T04:35:37.370Z,89
2023-02-04T04:39:02.543Z,88
2023-02-04T04:42:27.734Z,88
2023-02-04T04:45:52.999Z,88
2023-02-04T04:49:18.184Z,88
2023-02-04T04:52:43.407Z,87
2023-02-04T04:56:08.606Z,88
2023-02-04T04:59:33.821Z,88
2023-02-04T05:02:59.063Z,87
2023-02-04T05:06:24.302Z,88
2023-02-04T05:09:49.499Z,87
2023-02-04T05:13:14.728Z,86
2023-02-04T05:16:39.990Z,86
2023-02-04T05:20:05.181Z,87
2023-02-04T05:23:30.338Z,87
2023-02-04T05:26:55.563Z,87
2023-02-04T05:30:20.813Z,87
2023-02-04T05:33:46.045Z,87
2023-02-04T05:37:11.280Z,88
2023-02-04T05:40:36.459Z,88
2023-02-04T05:44:01.745Z,89
2023-02-04T05:47:26.965Z,88
2023-02-04T05:50:52.179Z,88
2023-02-04T05:54:17.401Z,88
2023-02-04T05:57:42.568Z,88
2023-02-04T06:01:07.743Z,87
2023-02-04T06:04:33.009Z,87
2023-02-04T06:07:58.127Z,87
2023-02-04T06:11:23.375Z,87
2023-02-04T06:14:48.557Z,87
2023-02-04T06:18:13.748Z,86
2023-02-04T06:21:38.985Z,86
2023-02-04T06:25:04.199Z,85
2023-02-04T06:28:29.394Z,85
2023-02-04T06:31:54.664Z,85
2023-02-04T06:35:19.748Z,85
2023-02-04T06:38:44.927Z,85
2023-02-04T06:42:10.116Z,85
2023-02-04T06:45:35.377Z,86
2023-02-04T06:49:00.537Z,86
2023-02-04T06:52:25.755Z,87
2023-02-04T06:55:50.959Z,87
2023-02-04T06:59:16.153Z,87
2023-02-04T07:02:41.431Z,86
2023-02-04T07:06:06.584Z,86
2023-02-04T07:09:31.830Z,85
2023-02-04T07:12:57.001Z,85
2023-02-04T07:16:22.194Z,85
2023-02-04T07:19:47.425Z,85
2023-02-04T07:23:12.570Z,84
2023-02-04T07:26:37.768Z,84
2023-02-04T07:30:02.965Z,84
2023-02-04T07:33:28.186Z,84
2023-02-04T07:36:53.522Z,83
2023-02-04T07:40:18.652Z,83
2023-02-04T07:43:44.084Z,85
2023-02-04T07:47:09.316Z,84
2023-02-04T07:50:34.849Z,84
2023-02-04T07:53:59.719Z,84
2023-02-04T07:57:24.851Z,84
2023-02-04T08:00:50.062Z,83
2023-02-04T08:04:15.261Z,83
2023-02-04T08:07:40.471Z,83
2023-02-04T08:11:05.733Z,84
2023-02-04T08:14:30.886Z,84
2023-02-04T08:17:56.062Z,84
2023-02-04T08:21:21.297Z,84
2023-02-04T08:24:46.523Z,84
2023-02-04T08:28:11.783Z,83
2023-02-04T08:31:37.040Z,85
2023-02-04T08:35:02.110Z,85
2023-02-04T08:38:27.316Z,85
2023-02-04T08:41:52.575Z,83
2023-02-04T08:45:17.848Z,83
2023-02-04T08:48:43.012Z,83
2023-02-04T08:52:08.315Z,83
2023-02-04T08:55:33.517Z,82
2023-02-04T08:58:58.754Z,82
2023-02-04T09:02:24.029Z,83
2023-02-04T09:05:49.248Z,81
2023-02-04T09:09:14.446Z,81
2023-02-04T09:12:39.632Z,82
2023-02-04T09:16:07.742Z,82
2023-02-04T09:19:32.926Z,82
2023-02-04T09:22:58.123Z,82
2023-02-04T09:26:23.314Z,81
2023-02-04T09:29:48.678Z,81
2023-02-04T09:33:13.920Z,81
2023-02-04T09:36:39.153Z,81
2023-02-04T09:40:04.355Z,81
2023-02-04T09:43:29.576Z,81
2023-02-04T09:46:54.788Z,81
2023-02-04T09:50:19.974Z,81
2023-02-04T09:53:45.215Z,77
2023-02-04T09:57:10.380Z,73
2023-02-04T10:00:35.618Z,71
2023-02-04T10:04:00.866Z,74
2023-02-04T10:07:26.000Z,73
2023-02-04T10:10:51.234Z,76
2023-02-04T10:14:16.370Z,75
2023-02-04T10:17:41.578Z,71
2023-02-04T10:21:06.785Z,71
2023-02-04T10:24:31.988Z,74
2023-02-04T10:27:57.339Z,73
2023-02-04T10:31:22.505Z,74
2023-02-04T10:34:47.633Z,73
2023-02-04T10:38:12.833Z,73
2023-02-04T10:41:38.004Z,74
2023-02-04T10:45:03.251Z,73
2023-02-04T10:48:28.461Z,73
2023-02-04T10:51:53.759Z,76
2023-02-04T10:55:18.976Z,78
2023-02-04T10:58:44.179Z,78
2023-02-04T11:02:09.435Z,76
2023-02-04T11:05:34.652Z,75
2023-02-04T11:08:59.840Z,76
2023-02-04T11:12:25.081Z,75
2023-02-04T11:15:51.129Z,73
2023-02-04T11:19:15.553Z,75
2023-02-04T11:22:40.768Z,73
2023-02-04T11:26:05.997Z,71
2023-02-04T11:29:31.271Z,75
2023-02-04T11:32:56.544Z,75
2023-02-04T11:36:21.772Z,75
2023-02-04T11:39:46.948Z,74
2023-02-04T11:43:12.207Z,74
2023-02-04T11:46:37.399Z,74
2023-02-04T11:50:02.577Z,74
2023-02-04T11:53:27.779Z,76
2023-02-04T11:56:52.949Z,71
2023-02-04T12:00:18.119Z,70
2023-02-04T12:03:43.349Z,71
2023-02-04T12:07:08.541Z,70
2023-02-04T12:10:33.749Z,70
2023-02-04T12:13:58.941Z,71
2023-02-04T12:17:24.159Z,70
2023-02-04T12:20:49.370Z,71
2023-02-04T12:24:14.595Z,73
2023-02-04T12:27:39.823Z,73
2023-02-04T12:31:05.121Z,73
2023-02-04T12:34:30.247Z,71
2023-02-04T12:37:55.452Z,70
2023-02-04T12:41:20.632Z,70
2023-02-04T12:44:45.849Z,72
2023-02-04T12:48:11.069Z,69
2023-02-04T12:51:36.246Z,72
2023-02-04T12:55:01.412Z,72
2023-02-04T12:58:26.598Z,72
2023-02-04T13:01:51.791Z,70
2023-02-04T13:05:16.951Z,71
2023-02-04T13:08:42.156Z,70
2023-02-04T13:12:07.368Z,71
2023-02-04T13:15:32.866Z,70
2023-02-04T13:18:57.815Z,69
2023-02-04T13:22:22.999Z,71
2023-02-04T13:25:48.165Z,70
2023-02-04T13:29:13.412Z,70
2023-02-04T13:32:38.593Z,71
2023-02-04T13:36:03.824Z,69
2023-02-04T13:39:29.024Z,68
2023-02-04T13:42:54.265Z,69
2023-02-04T13:46:19.459Z,66
2023-02-04T13:49:44.684Z,67
2023-02-04T13:53:09.923Z,66
2023-02-04T13:56:35.105Z,65
2023-02-04T14:00:00.293Z,65
2023-02-04T14:03:25.527Z,66
2023-02-04T14:06:50.749Z,66
2023-02-04T14:10:15.976Z,64
2023-02-04T14:13:41.126Z,66
2023-02-04T14:17:06.301Z,67
2023-02-04T14:20:31.904Z,68
2023-02-04T14:23:56.751Z,67
2023-02-04T14:27:22.045Z,65
2023-02-04T14:30:47.293Z,65
2023-02-04T15:05:35.589Z,70
2023-02-04T15:09:00.801Z,70
2023-02-04T15:12:25.977Z,69
2023-02-04T15:15:51.155Z,70
2023-02-04T15:19:16.383Z,70
2023-02-04T15:22:41.582Z,68
2023-02-04T15:26:06.752Z,67
2023-02-04T15:29:31.934Z,68
2023-02-04T15:32:57.192Z,69
2023-02-04T15:36:22.505Z,67
2023-02-04T15:39:47.834Z,67
2023-02-04T15:43:13.075Z,67
2023-02-04T15:46:38.330Z,67
2023-02-04T15:50:03.575Z,67
2023-02-04T15:53:28.630Z,66
2023-02-04T15:56:53.871Z,67
2023-02-04T16:00:19.029Z,67
2023-02-04T16:03:44.214Z,67
2023-02-04T16:07:09.389Z,70
2023-02-04T16:10:35.253Z,71
2023-02-04T16:14:00.181Z,73
2023-02-04T16:17:25.370Z,70
2023-02-04T16:20:50.551Z,70
2023-02-04T16:24:15.736Z,70
2023-02-04T16:27:40.945Z,70
2023-02-04T16:31:06.290Z,70
2023-02-04T16:34:31.292Z,71
2023-02-04T16:37:56.449Z,72
2023-02-04T16:41:21.654Z,74
2023-02-04T16:44:48.948Z,73
2023-02-04T16:48:14.151Z,72
2023-02-04T16:51:39.303Z,72
2023-02-04T16:55:04.501Z,74
2023-02-04T16:58:29.710Z,75
2023-02-04T17:01:54.893Z,76
2023-02-04T17:05:20.075Z,76
2023-02-04T17:08:45.257Z,77
2023-02-04T17:12:10.519Z,77
2023-02-04T17:15:35.740Z,77
2023-02-04T17:19:00.963Z,77
2023-02-04T17:22:26.168Z,77
2023-02-04T17:25:51.376Z,75
2023-02-04T17:29:16.569Z,76
2023-02-04T17:32:42.335Z,75
2023-02-04T17:36:07.000Z,75
2023-02-04T17:39:32.286Z,76
2023-02-04T17:42:57.454Z,75
2023-02-04T17:46:22.847Z,75
2023-02-04T17:49:48.020Z,77
2023-02-04T17:53:13.290Z,77
2023-02-04T17:56:38.542Z,77
2023-02-04T18:00:03.774Z,76
2023-02-04T18:03:28.974Z,76
2023-02-04T18:06:54.184Z,77
2023-02-04T18:10:19.430Z,75
2023-02-04T18:13:44.647Z,74
2023-02-04T18:17:09.928Z,74
2023-02-04T18:20:35.127Z,76
2023-02-04T18:24:01.210Z,77
2023-02-04T18:27:25.507Z,77
2023-02-04T18:30:50.773Z,77
2023-02-04T18:34:16.426Z,78
2023-02-04T18:37:41.176Z,77
2023-02-04T18:41:06.373Z,76
2023-02-04T18:44:31.666Z,78
2023-02-04T18:47:56.813Z,78
2023-02-04T18:51:22.004Z,76
2023-02-04T18:54:47.218Z,77
2023-02-04T18:58:12.833Z,78
2023-02-04T19:01:37.645Z,78
2023-02-04T19:05:12.997Z,78
2023-02-04T19:08:28.075Z,78
2023-02-04T19:11:53.322Z,77
2023-02-04T19:15:18.536Z,77
2023-02-04T19:18:43.711Z,76
2023-02-04T19:22:08.925Z,76
2023-02-04T19:25:34.381Z,76
2023-02-04T19:28:59.306Z,76
2023-02-04T19:32:24.485Z,77
2023-02-04T19:35:49.711Z,77
2023-02-04T19:39:14.981Z,76
2023-02-04T19:42:40.131Z,76
2023-02-04T19:46:05.388Z,76
2023-02-04T19:49:30.563Z,76
2023-02-04T19:52:55.749Z,76
2023-02-04T19:56:20.986Z,76
2023-02-04T19:59:46.229Z,76
2023-02-04T20:03:11.422Z,77
2023-02-04T20:06:36.623Z,76
2023-02-04T20:10:01.843Z,76
2023-02-04T20:13:27.028Z,77
2023-02-04T20:16:52.217Z,77
2023-02-04T20:20:17.438Z,76
2023-02-04T20:23:42.646Z,75
2023-02-04T20:27:08.266Z,78
2023-02-04T20:30:33.507Z,78
2023-02-04T20:33:58.693Z,78
2023-02-04T20:37:24.653Z,78
2023-02-04T20:40:49.876Z,78
2023-02-04T20:44:15.054Z,78
2023-02-04T20:47:40.309Z,78
2023-02-04T20:51:05.513Z,78
2023-02-04T20:54:30.682Z,78
2023-02-04T20:57:55.888Z,78
2023-02-04T21:01:21.152Z,78
2023-02-04T21:04:46.332Z,78
2023-02-04T21:08:11.481Z,78
2023-02-04T21:11:36.676Z,78
2023-02-04T21:15:01.846Z,78
2023-02-04T21:18:27.118Z,78
2023-02-04T21:21:52.387Z,79
2023-02-04T21:25:17.525Z,79
2023-02-04T21:28:42.731Z,79
2023-02-04T21:32:07.939Z,78
2023-02-04T21:35:33.490Z,78
2023-02-04T21:38:58.379Z,78
2023-02-04T21:42:23.624Z,79
2023-02-04T21:45:48.847Z,76
2023-02-04T21:49:14.058Z,77
2023-02-04T21:52:39.309Z,76
2023-02-04T21:56:04.544Z,76
2023-02-04T21:59:29.699Z,77
2023-02-04T22:02:54.912Z,77
2023-02-04T22:06:20.134Z,79
2023-02-04T22:09:45.329Z,80
2023-02-04T22:13:10.572Z,79
2023-02-04T22:16:35.748Z,79
2023-02-04T22:20:00.929Z,79
2023-02-04T22:23:26.134Z,80
2023-02-04T22:26:51.362Z,79
2023-02-04T22:30:16.577Z,80
2023-02-04T22:33:41.746Z,80
2023-02-04T22:37:06.928Z,79
2023-02-04T22:40:32.109Z,79
2023-02-04T22:43:57.306Z,79
2023-02-04T22:47:22.529Z,79
2023-02-04T22:50:47.685Z,79
2023-02-04T22:54:12.842Z,79
2023-02-04T22:57:38.045Z,79
2023-02-04T23:01:03.286Z,80
2023-02-04T23:04:28.447Z,80
2023-02-04T23:07:53.612Z,80
2023-02-04T23:11:18.820Z,80
2023-02-04T23:14:44.000Z,78
2023-02-04T23:18:09.204Z,79
2023-02-04T23:21:35.546Z,79
2023-02-04T23:25:00.677Z,78
2023-02-04T23:28:25.870Z,78
2023-02-04T23:31:51.065Z,78
2023-02-04T23:35:16.254Z,78
2023-02-04T23:38:41.454Z,78
2023-02-04T23:42:06.612Z,77
2023-02-04T23:45:32.235Z,77
2023-02-04T23:48:56.996Z,77
2023-02-04T23:52:22.176Z,78
2023-02-04T23:55:47.370Z,78
2023-02-04T23:59:12.515Z,78
